Bradley, South Dakota
Current Conditions -  °F | °C
As of 2:53 PM on Thursday 27 Nov 2014 (Local Time) from KATY Reporting Station
Overcast Overcast  
Wind Chill: -7°   Ceiling: 3100
Heat Index:   Visibility: 10mi
Dew Point: -1°   Wind: 14mph
Humidity: 64%   Direction: 160°SSE
Pressure: 30.24"   Gusts: NA
Location:  45.09°N, 97.64°W
Report Text: KATY 272053Z AUTO 16012KT 10SM OVC031 M13/M18 A3024 RMK AO2 SLP289 T11281183 56037
Loading
Personal Weather Stations






























Interactive Weather Map New forecast layout! Learn more

10-Day Weather Forecast

Advertisements
Track Severe Weather on mobile